sensor_id;sensor_type;location;lat;lon;timestamp;pressure;altitude;pressure_sealevel;temperature;humidity
25526;BME280;13424;48.424;11.258;2023-06-22T00:00:52;95722.09;;;23.14;79.47
25526;BME280;13424;48.424;11.258;2023-06-22T00:03:19;95719.84;;;22.99;80.05
25526;BME280;13424;48.424;11.258;2023-06-22T00:05:46;95717.19;;;23.25;78.91
25526;BME280;13424;48.424;11.258;2023-06-22T00:08:13;95725.44;;;23.02;79.48
25526;BME280;13424;48.424;11.258;2023-06-22T00:10:38;95718.06;;;22.94;79.91
25526;BME280;13424;48.424;11.258;2023-06-22T00:13:06;95710.59;;;22.69;80.86
25526;BME280;13424;48.424;11.258;2023-06-22T00:15:32;95697.13;;;22.64;81.46
25526;BME280;13424;48.424;11.258;2023-06-22T00:17:58;95702.50;;;22.86;80.42
25526;BME280;13424;48.424;11.258;2023-06-22T00:20:25;95698.44;;;22.75;80.78
25526;BME280;13424;48.424;11.258;2023-06-22T00:22:57;95695.47;;;22.85;80.50
25526;BME280;13424;48.424;11.258;2023-06-22T00:25:24;95713.41;;;22.64;81.23
25526;BME280;13424;48.424;11.258;2023-06-22T00:27:49;95706.38;;;22.63;81.61
25526;BME280;13424;48.424;11.258;2023-06-22T00:30:16;95707.03;;;22.60;81.64
25526;BME280;13424;48.424;11.258;2023-06-22T00:32:44;95698.53;;;22.92;80.36
25526;BME280;13424;48.424;11.258;2023-06-22T00:35:11;95694.63;;;22.76;81.02
25526;BME280;13424;48.424;11.258;2023-06-22T00:37:40;95707.34;;;22.67;81.15
25526;BME280;13424;48.424;11.258;2023-06-22T00:40:10;95700.53;;;22.38;82.39
25526;BME280;13424;48.424;11.258;2023-06-22T00:42:41;95697.09;;;22.55;81.78
25526;BME280;13424;48.424;11.258;2023-06-22T00:45:07;95694.03;;;22.56;81.65
25526;BME280;13424;48.424;11.258;2023-06-22T00:47:36;95691.56;;;22.69;81.05
25526;BME280;13424;48.424;11.258;2023-06-22T00:50:06;95694.63;;;22.76;80.35
25526;BME280;13424;48.424;11.258;2023-06-22T00:52:32;95706.84;;;22.87;79.98
25526;BME280;13424;48.424;11.258;2023-06-22T00:55:01;95705.34;;;22.81;80.20
25526;BME280;13424;48.424;11.258;2023-06-22T00:58:23;95699.09;;;22.80;80.30
25526;BME280;13424;48.424;11.258;2023-06-22T01:00:51;95693.28;;;22.65;80.98
25526;BME280;13424;48.424;11.258;2023-06-22T01:03:18;95696.03;;;22.73;80.57
25526;BME280;13424;48.424;11.258;2023-06-22T01:05:44;95699.16;;;22.58;80.94
25526;BME280;13424;48.424;11.258;2023-06-22T01:09:06;95688.47;;;22.62;80.55
25526;BME280;13424;48.424;11.258;2023-06-22T01:11:41;95689.59;;;22.61;80.76
25526;BME280;13424;48.424;11.258;2023-06-22T01:14:25;95682.25;;;22.30;81.36
25526;BME280;13424;48.424;11.258;2023-06-22T01:16:56;95680.50;;;22.34;81.27
25526;BME280;13424;48.424;11.258;2023-06-22T01:21:55;95682.22;;;22.52;80.55
25526;BME280;13424;48.424;11.258;2023-06-22T01:24:50;95694.03;;;22.56;80.19
25526;BME280;13424;48.424;11.258;2023-06-22T01:29:57;95690.59;;;22.73;79.66
25526;BME280;13424;48.424;11.258;2023-06-22T01:32:34;95697.94;;;22.73;79.88
25526;BME280;13424;48.424;11.258;2023-06-22T01:35:04;95693.84;;;22.44;80.99
25526;BME280;13424;48.424;11.258;2023-06-22T01:37:31;95696.06;;;22.42;81.41
25526;BME280;13424;48.424;11.258;2023-06-22T01:39:58;95699.63;;;22.51;81.00
25526;BME280;13424;48.424;11.258;2023-06-22T01:42:24;95697.31;;;22.67;80.39
25526;BME280;13424;48.424;11.258;2023-06-22T01:44:53;95699.88;;;22.72;80.00
25526;BME280;13424;48.424;11.258;2023-06-22T01:47:20;95699.84;;;23.03;79.07
25526;BME280;13424;48.424;11.258;2023-06-22T01:49:49;95702.78;;;22.76;79.83
25526;BME280;13424;48.424;11.258;2023-06-22T01:52:17;95705.84;;;22.83;79.31
25526;BME280;13424;48.424;11.258;2023-06-22T01:54:43;95713.41;;;22.95;78.91
25526;BME280;13424;48.424;11.258;2023-06-22T01:57:19;95714.50;;;22.85;79.52
25526;BME280;13424;48.424;11.258;2023-06-22T02:00:03;95712.88;;;22.84;79.20
25526;BME280;13424;48.424;11.258;2023-06-22T02:02:43;95715.50;;;22.98;78.41
25526;BME280;13424;48.424;11.258;2023-06-22T02:05:17;95720.78;;;23.03;78.50
25526;BME280;13424;48.424;11.258;2023-06-22T02:07:54;95722.72;;;23.11;77.95
25526;BME280;13424;48.424;11.258;2023-06-22T02:10:22;95721.31;;;22.82;78.82
25526;BME280;13424;48.424;11.258;2023-06-22T02:12:50;95731.81;;;22.67;79.44
25526;BME280;13424;48.424;11.258;2023-06-22T02:15:17;95718.88;;;22.64;79.34
25526;BME280;13424;48.424;11.258;2023-06-22T02:17:43;95725.00;;;22.78;78.83
25526;BME280;13424;48.424;11.258;2023-06-22T02:20:15;95726.69;;;22.34;80.30
25526;BME280;13424;48.424;11.258;2023-06-22T02:22:41;95721.28;;;22.74;78.84
25526;BME280;13424;48.424;11.258;2023-06-22T02:25:10;95726.97;;;22.55;79.54
25526;BME280;13424;48.424;11.258;2023-06-22T02:27:36;95716.63;;;22.66;79.06
25526;BME280;13424;48.424;11.258;2023-06-22T02:30:08;95704.50;;;22.72;78.89
25526;BME280;13424;48.424;11.258;2023-06-22T02:32:35;95699.16;;;22.27;80.79
25526;BME280;13424;48.424;11.258;2023-06-22T02:35:01;95698.19;;;22.85;78.76
25526;BME280;13424;48.424;11.258;2023-06-22T02:37:31;95688.66;;;22.34;80.77
25526;BME280;13424;48.424;11.258;2023-06-22T02:39:57;95691.22;;;22.31;81.25
25526;BME280;13424;48.424;11.258;2023-06-22T02:42:23;95686.94;;;22.38;80.58
25526;BME280;13424;48.424;11.258;2023-06-22T02:44:49;95687.25;;;22.37;80.63
25526;BME280;13424;48.424;11.258;2023-06-22T02:47:16;95689.72;;;22.55;80.00
25526;BME280;13424;48.424;11.258;2023-06-22T02:49:48;95688.06;;;22.37;80.94
25526;BME280;13424;48.424;11.258;2023-06-22T02:52:15;95693.03;;;22.13;81.68
25526;BME280;13424;48.424;11.258;2023-06-22T02:54:43;95690.44;;;22.08;81.87
25526;BME280;13424;48.424;11.258;2023-06-22T02:57:12;95698.91;;;22.68;79.71
25526;BME280;13424;48.424;11.258;2023-06-22T02:59:40;95691.88;;;22.67;79.98
25526;BME280;13424;48.424;11.258;2023-06-22T03:02:09;95698.19;;;22.23;81.87
25526;BME280;13424;48.424;11.258;2023-06-22T03:04:35;95694.19;;;22.20;81.88
25526;BME280;13424;48.424;11.258;2023-06-22T03:07:02;95692.28;;;21.98;82.67
25526;BME280;13424;48.424;11.258;2023-06-22T03:09:30;95690.63;;;22.42;81.26
25526;BME280;13424;48.424;11.258;2023-06-22T03:16:03;95698.19;;;22.23;81.82
25526;BME280;13424;48.424;11.258;2023-06-22T03:18:29;95687.66;;;22.52;80.33
25526;BME280;13424;48.424;11.258;2023-06-22T03:20:55;95692.84;;;22.09;82.06
25526;BME280;13424;48.424;11.258;2023-06-22T03:23:21;95697.88;;;22.24;81.83
25526;BME280;13424;48.424;11.258;2023-06-22T03:25:47;95700.78;;;22.06;82.66
25526;BME280;13424;48.424;11.258;2023-06-22T03:28:13;95700.78;;;22.06;82.79
25526;BME280;13424;48.424;11.258;2023-06-22T03:30:39;95702.25;;;22.34;81.07
25526;BME280;13424;48.424;11.258;2023-06-22T03:33:05;95704.09;;;22.47;80.83
25526;BME280;13424;48.424;11.258;2023-06-22T03:35:32;95709.69;;;22.20;81.45
25526;BME280;13424;48.424;11.258;2023-06-22T03:37:58;95704.53;;;22.41;80.92
25526;BME280;13424;48.424;11.258;2023-06-22T03:40:23;95711.47;;;22.55;80.35
25526;BME280;13424;48.424;11.258;2023-06-22T03:42:50;95709.06;;;22.23;81.59
25526;BME280;13424;48.424;11.258;2023-06-22T03:45:16;95698.72;;;22.34;81.12
25526;BME280;13424;48.424;11.258;2023-06-22T03:47:42;95703.91;;;22.44;80.73
25526;BME280;13424;48.424;11.258;2023-06-22T03:50:08;95704.22;;;22.82;79.17
25526;BME280;13424;48.424;11.258;2023-06-22T03:52:34;95697.84;;;22.47;80.19
25526;BME280;13424;48.424;11.258;2023-06-22T03:55:00;95704.16;;;22.65;79.91
25526;BME280;13424;48.424;11.258;2023-06-22T03:57:26;95702.13;;;22.39;80.70
25526;BME280;13424;48.424;11.258;2023-06-22T03:59:56;95701.72;;;22.54;80.20
25526;BME280;13424;48.424;11.258;2023-06-22T04:06:29;95695.16;;;22.55;80.14
25526;BME280;13424;48.424;11.258;2023-06-22T04:08:55;95698.47;;;22.83;79.10
25526;BME280;13424;48.424;11.258;2023-06-22T04:11:21;95699.81;;;22.95;78.26
25526;BME280;13424;48.424;11.258;2023-06-22T04:13:47;95695.38;;;23.07;77.80
25526;BME280;13424;48.424;11.258;2023-06-22T04:16:14;95690.91;;;22.72;79.07
25526;BME280;13424;48.424;11.258;2023-06-22T04:18:40;95698.34;;;22.89;78.93
25526;BME280;13424;48.424;11.258;2023-06-22T04:21:07;95696.16;;;22.60;79.85
25526;BME280;13424;48.424;11.258;2023-06-22T04:23:33;95696.44;;;22.58;80.10
25526;BME280;13424;48.424;11.258;2023-06-22T04:25:59;95690.84;;;22.94;78.53
25526;BME280;13424;48.424;11.258;2023-06-22T04:28:25;95684.34;;;23.12;77.57
25526;BME280;13424;48.424;11.258;2023-06-22T04:30:51;95692.22;;;23.31;77.39
25526;BME280;13424;48.424;11.258;2023-06-22T04:33:17;95690.81;;;23.60;76.53
25526;BME280;13424;48.424;11.258;2023-06-22T04:35:45;95705.53;;;23.85;75.33
25526;BME280;13424;48.424;11.258;2023-06-22T04:38:12;95711.66;;;23.73;75.31
25526;BME280;13424;48.424;11.258;2023-06-22T04:40:41;95709.50;;;24.31;73.90
25526;BME280;13424;48.424;11.258;2023-06-22T04:43:07;95696.72;;;24.05;74.20
25526;BME280;13424;48.424;11.258;2023-06-22T04:45:35;95703.25;;;24.30;73.44
25526;BME280;13424;48.424;11.258;2023-06-22T04:48:05;95701.19;;;24.36;73.37
25526;BME280;13424;48.424;11.258;2023-06-22T04:50:30;95701.34;;;24.22;74.20
25526;BME280;13424;48.424;11.258;2023-06-22T04:52:56;95696.38;;;24.15;74.94
25526;BME280;13424;48.424;11.258;2023-06-22T04:55:23;95689.56;;;24.56;73.60
25526;BME280;13424;48.424;11.258;2023-06-22T04:57:51;95701.19;;;24.36;73.64
25526;BME280;13424;48.424;11.258;2023-06-22T05:00:20;95687.63;;;24.65;73.37
25526;BME280;13424;48.424;11.258;2023-06-22T05:02:48;95699.38;;;24.57;73.47
25526;BME280;13424;48.424;11.258;2023-06-22T05:05:15;95703.19;;;25.03;70.84
25526;BME280;13424;48.424;11.258;2023-06-22T05:07:47;95714.88;;;24.65;72.73
25526;BME280;13424;48.424;11.258;2023-06-22T05:10:19;95717.22;;;25.22;70.62
25526;BME280;13424;48.424;11.258;2023-06-22T05:12:46;95705.63;;;25.25;70.73
25526;BME280;13424;48.424;11.258;2023-06-22T05:15:12;95703.00;;;25.08;70.68
25526;BME280;13424;48.424;11.258;2023-06-22T05:17:38;95706.50;;;26.55;67.20
25526;BME280;13424;48.424;11.258;2023-06-22T05:20:12;95707.13;;;26.97;64.82
25526;BME280;13424;48.424;11.258;2023-06-22T05:22:39;95708.53;;;27.80;63.31
25526;BME280;13424;48.424;11.258;2023-06-22T05:25:08;95699.94;;;26.92;64.08
25526;BME280;13424;48.424;11.258;2023-06-22T05:27:34;95711.56;;;26.89;65.09
25526;BME280;13424;48.424;11.258;2023-06-22T05:30:08;95692.91;;;26.13;67.03
25526;BME280;13424;48.424;11.258;2023-06-22T05:32:35;95681.34;;;26.28;67.55
25526;BME280;13424;48.424;11.258;2023-06-22T05:35:56;95676.31;;;26.18;66.88
25526;BME280;13424;48.424;11.258;2023-06-22T05:38:21;95668.78;;;25.61;69.43
25526;BME280;13424;48.424;11.258;2023-06-22T05:40:47;95663.97;;;26.00;67.99
25526;BME280;13424;48.424;11.258;2023-06-22T05:43:13;95673.38;;;26.23;68.05
25526;BME280;13424;48.424;11.258;2023-06-22T05:45:39;95684.16;;;25.86;69.00
25526;BME280;13424;48.424;11.258;2023-06-22T05:48:05;95676.25;;;25.73;68.71
25526;BME280;13424;48.424;11.258;2023-06-22T05:50:31;95676.75;;;25.66;69.58
25526;BME280;13424;48.424;11.258;2023-06-22T05:52:56;95679.47;;;25.66;69.91
25526;BME280;13424;48.424;11.258;2023-06-22T05:59:29;95675.25;;;26.10;68.98
25526;BME280;13424;48.424;11.258;2023-06-22T06:01:55;95671.56;;;25.94;68.78
25526;BME280;13424;48.424;11.258;2023-06-22T06:04:21;95679.59;;;25.78;69.16
25526;BME280;13424;48.424;11.258;2023-06-22T06:06:46;95687.63;;;25.96;68.72
25526;BME280;13424;48.424;11.258;2023-06-22T06:09:15;95682.91;;;26.17;67.29
25526;BME280;13424;48.424;11.258;2023-06-22T06:11:41;95673.13;;;26.16;68.17
25526;BME280;13424;48.424;11.258;2023-06-22T06:14:07;95677.78;;;26.61;67.79
25526;BME280;13424;48.424;11.258;2023-06-22T06:16:33;95667.53;;;26.58;67.74
25526;BME280;13424;48.424;11.258;2023-06-22T06:18:59;95666.13;;;26.06;68.41
25526;BME280;13424;48.424;11.258;2023-06-22T06:21:25;95666.75;;;26.57;67.19
25526;BME280;13424;48.424;11.258;2023-06-22T06:23:50;95659.06;;;26.38;68.27
25526;BME280;13424;48.424;11.258;2023-06-22T06:26:16;95661.50;;;26.52;66.58
25526;BME280;13424;48.424;11.258;2023-06-22T06:28:45;95654.56;;;26.22;66.91
25526;BME280;13424;48.424;11.258;2023-06-22T06:31:11;95663.34;;;26.27;67.76
25526;BME280;13424;48.424;11.258;2023-06-22T06:33:37;95645.81;;;26.28;67.22
25526;BME280;13424;48.424;11.258;2023-06-22T06:40:13;95659.78;;;26.84;66.40
25526;BME280;13424;48.424;11.258;2023-06-22T06:42:40;95653.41;;;27.29;65.23
25526;BME280;13424;48.424;11.258;2023-06-22T06:45:20;95662.53;;;26.96;65.63
25526;BME280;13424;48.424;11.258;2023-06-22T06:47:48;95658.22;;;26.83;64.81
25526;BME280;13424;48.424;11.258;2023-06-22T06:50:14;95661.28;;;26.82;65.73
25526;BME280;13424;48.424;11.258;2023-06-22T06:52:40;95659.00;;;26.59;66.62
25526;BME280;13424;48.424;11.258;2023-06-22T06:55:08;95659.91;;;27.00;66.00
25526;BME280;13424;48.424;11.258;2023-06-22T06:57:38;95661.31;;;27.18;65.82
25526;BME280;13424;48.424;11.258;2023-06-22T07:00:07;95659.34;;;27.31;65.24
25526;BME280;13424;48.424;11.258;2023-06-22T07:02:38;95656.53;;;27.68;64.71
25526;BME280;13424;48.424;11.258;2023-06-22T07:05:05;95655.16;;;27.62;65.37
25526;BME280;13424;48.424;11.258;2023-06-22T07:07:31;95660.50;;;27.18;66.08
25526;BME280;13424;48.424;11.258;2023-06-22T07:09:57;95652.31;;;27.18;65.17
25526;BME280;13424;48.424;11.258;2023-06-22T07:12:23;95653.28;;;27.01;65.94
25526;BME280;13424;48.424;11.258;2023-06-22T07:14:49;95638.88;;;27.41;65.15
25526;BME280;13424;48.424;11.258;2023-06-22T07:17:15;95644.78;;;27.67;64.47
25526;BME280;13424;48.424;11.258;2023-06-22T07:19:41;95640.50;;;27.82;64.93
25526;BME280;13424;48.424;11.258;2023-06-22T07:22:07;95641.25;;;27.95;63.93
25526;BME280;13424;48.424;11.258;2023-06-22T07:24:33;95630.31;;;27.67;64.18
25526;BME280;13424;48.424;11.258;2023-06-22T07:26:59;95630.56;;;27.90;64.46
25526;BME280;13424;48.424;11.258;2023-06-22T07:29:25;95629.16;;;27.55;64.60
25526;BME280;13424;48.424;11.258;2023-06-22T07:31:52;95621.41;;;27.86;63.85
25526;BME280;13424;48.424;11.258;2023-06-22T07:34:18;95618.44;;;27.91;63.09
25526;BME280;13424;48.424;11.258;2023-06-22T07:36:45;95620.31;;;28.30;62.63
25526;BME280;13424;48.424;11.258;2023-06-22T07:39:11;95616.81;;;27.74;63.37
25526;BME280;13424;48.424;11.258;2023-06-22T07:41:39;95617.41;;;28.11;62.73
25526;BME280;13424;48.424;11.258;2023-06-22T07:44:06;95624.19;;;28.29;62.32
25526;BME280;13424;48.424;11.258;2023-06-22T07:46:33;95616.56;;;28.23;61.35
25526;BME280;13424;48.424;11.258;2023-06-22T07:48:58;95615.56;;;28.15;62.71
25526;BME280;13424;48.424;11.258;2023-06-22T07:51:25;95618.78;;;28.33;61.28
25526;BME280;13424;48.424;11.258;2023-06-22T07:53:51;95619.09;;;28.16;61.58
25526;BME280;13424;48.424;11.258;2023-06-22T07:56:17;95621.09;;;28.94;62.25
25526;BME280;13424;48.424;11.258;2023-06-22T07:58:47;95615.41;;;29.03;60.38
25526;BME280;13424;48.424;11.258;2023-06-22T08:01:16;95621.34;;;29.40;60.80
25526;BME280;13424;48.424;11.258;2023-06-22T08:03:43;95620.19;;;29.41;60.41
25526;BME280;13424;48.424;11.258;2023-06-22T08:06:09;95619.56;;;29.67;60.22
25526;BME280;13424;48.424;11.258;2023-06-22T08:08:38;95620.16;;;29.22;60.09
25526;BME280;13424;48.424;11.258;2023-06-22T08:11:04;95625.16;;;29.70;59.33
25526;BME280;13424;48.424;11.258;2023-06-22T08:13:31;95627.59;;;29.75;58.95
25526;BME280;13424;48.424;11.258;2023-06-22T08:15:57;95617.13;;;29.81;59.58
25526;BME280;13424;48.424;11.258;2023-06-22T08:22:00;95621.66;;;29.54;59.53
25526;BME280;13424;48.424;11.258;2023-06-22T08:24:26;95617.31;;;29.92;58.35
25526;BME280;13424;48.424;11.258;2023-06-22T08:26:56;95613.44;;;30.12;58.11
25526;BME280;13424;48.424;11.258;2023-06-22T08:29:21;95612.84;;;30.03;57.10
25526;BME280;13424;48.424;11.258;2023-06-22T08:31:47;95611.13;;;30.60;57.56
25526;BME280;13424;48.424;11.258;2023-06-22T08:34:13;95620.72;;;30.47;57.15
25526;BME280;13424;48.424;11.258;2023-06-22T08:36:39;95617.34;;;30.57;58.02
25526;BME280;13424;48.424;11.258;2023-06-22T08:39:07;95616.63;;;30.60;57.42
25526;BME280;13424;48.424;11.258;2023-06-22T08:41:33;95623.72;;;30.61;56.17
25526;BME280;13424;48.424;11.258;2023-06-22T08:43:59;95615.75;;;30.56;56.78
25526;BME280;13424;48.424;11.258;2023-06-22T08:46:25;95614.66;;;30.38;56.66
25526;BME280;13424;48.424;11.258;2023-06-22T08:48:56;95618.22;;;30.61;56.58
25526;BME280;13424;48.424;11.258;2023-06-22T08:51:26;95615.66;;;30.72;56.58
25526;BME280;13424;48.424;11.258;2023-06-22T08:53:51;95618.09;;;31.03;57.54
25526;BME280;13424;48.424;11.258;2023-06-22T08:56:17;95612.06;;;30.94;56.85
25526;BME280;13424;48.424;11.258;2023-06-22T08:58:43;95617.81;;;31.35;56.47
25526;BME280;13424;48.424;11.258;2023-06-22T09:01:09;95614.56;;;31.56;55.89
25526;BME280;13424;48.424;11.258;2023-06-22T09:03:35;95605.16;;;31.30;55.64
25526;BME280;13424;48.424;11.258;2023-06-22T09:06:03;95610.94;;;31.52;55.62
25526;BME280;13424;48.424;11.258;2023-06-22T09:08:29;95615.16;;;31.16;54.99
25526;BME280;13424;48.424;11.258;2023-06-22T09:10:55;95611.78;;;31.26;55.37
25526;BME280;13424;48.424;11.258;2023-06-22T09:13:20;95597.84;;;31.75;54.58
25526;BME280;13424;48.424;11.258;2023-06-22T09:15:47;95603.75;;;31.17;54.96
25526;BME280;13424;48.424;11.258;2023-06-22T09:18:14;95602.06;;;31.65;53.80
25526;BME280;13424;48.424;11.258;2023-06-22T09:20:52;95603.19;;;31.91;54.47
25526;BME280;13424;48.424;11.258;2023-06-22T09:23:17;95599.75;;;32.38;54.48
25526;BME280;13424;48.424;11.258;2023-06-22T09:25:43;95602.31;;;32.20;53.28
25526;BME280;13424;48.424;11.258;2023-06-22T09:28:09;95598.34;;;32.18;53.05
25526;BME280;13424;48.424;11.258;2023-06-22T09:30:35;95591.19;;;32.50;52.84
25526;BME280;13424;48.424;11.258;2023-06-22T09:33:01;95590.41;;;32.13;53.85
25526;BME280;13424;48.424;11.258;2023-06-22T09:35:27;95596.69;;;32.47;52.22
25526;BME280;13424;48.424;11.258;2023-06-22T09:37:53;95599.59;;;32.65;52.71
25526;BME280;13424;48.424;11.258;2023-06-22T09:40:19;95594.38;;;32.53;52.69
25526;BME280;13424;48.424;11.258;2023-06-22T09:42:45;95583.97;;;32.83;51.87
25526;BME280;13424;48.424;11.258;2023-06-22T09:45:11;95596.13;;;32.71;51.85
25526;BME280;13424;48.424;11.258;2023-06-22T09:47:37;95588.03;;;32.96;52.91
25526;BME280;13424;48.424;11.258;2023-06-22T09:50:03;95584.94;;;33.09;51.69
25526;BME280;13424;48.424;11.258;2023-06-22T09:52:29;95576.75;;;33.23;51.15
25526;BME280;13424;48.424;11.258;2023-06-22T09:54:55;95571.91;;;33.05;51.22
25526;BME280;13424;48.424;11.258;2023-06-22T09:57:21;95573.16;;;33.12;51.87
25526;BME280;13424;48.424;11.258;2023-06-22T10:03:53;95562.00;;;33.01;51.17
25526;BME280;13424;48.424;11.258;2023-06-22T10:06:21;95566.34;;;33.68;52.54
25526;BME280;13424;48.424;11.258;2023-06-22T10:08:47;95561.41;;;33.32;49.21
25526;BME280;13424;48.424;11.258;2023-06-22T10:11:14;95560.88;;;33.09;49.33
25526;BME280;13424;48.424;11.258;2023-06-22T10:13:40;95557.75;;;33.11;49.49
25526;BME280;13424;48.424;11.258;2023-06-22T10:16:05;95559.88;;;33.39;50.20
25526;BME280;13424;48.424;11.258;2023-06-22T10:18:32;95560.31;;;33.44;49.71
25526;BME280;13424;48.424;11.258;2023-06-22T10:20:58;95561.31;;;33.15;50.22
25526;BME280;13424;48.424;11.258;2023-06-22T10:23:24;95565.88;;;33.51;50.49
25526;BME280;13424;48.424;11.258;2023-06-22T10:25:50;95560.44;;;33.80;49.40
25526;BME280;13424;48.424;11.258;2023-06-22T10:28:16;95560.06;;;33.81;48.31
25526;BME280;13424;48.424;11.258;2023-06-22T10:30:42;95560.19;;;34.31;48.70
25526;BME280;13424;48.424;11.258;2023-06-22T10:37:14;95572.09;;;34.57;47.61
25526;BME280;13424;48.424;11.258;2023-06-22T10:39:40;95567.34;;;35.11;47.68
25526;BME280;13424;48.424;11.258;2023-06-22T10:42:06;95559.03;;;34.64;47.21
25526;BME280;13424;48.424;11.258;2023-06-22T10:44:32;95563.28;;;35.51;46.84
25526;BME280;13424;48.424;11.258;2023-06-22T10:47:19;95550.72;;;34.39;47.44
25526;BME280;13424;48.424;11.258;2023-06-22T10:49:45;95546.63;;;33.76;48.50
25526;BME280;13424;48.424;11.258;2023-06-22T10:52:11;95545.19;;;34.29;48.45
25526;BME280;13424;48.424;11.258;2023-06-22T10:54:38;95546.41;;;34.56;48.37
25526;BME280;13424;48.424;11.258;2023-06-22T10:57:04;95557.84;;;35.05;46.84
25526;BME280;13424;48.424;11.258;2023-06-22T10:59:33;95543.53;;;35.28;46.23
25526;BME280;13424;48.424;11.258;2023-06-22T11:01:59;95544.28;;;35.39;46.52
25526;BME280;13424;48.424;11.258;2023-06-22T11:04:25;95550.66;;;35.32;46.69
25526;BME280;13424;48.424;11.258;2023-06-22T11:06:51;95550.66;;;35.29;45.56
25526;BME280;13424;48.424;11.258;2023-06-22T11:09:17;95543.38;;;35.70;45.99
25526;BME280;13424;48.424;11.258;2023-06-22T11:11:50;95538.28;;;35.62;45.60
25526;BME280;13424;48.424;11.258;2023-06-22T11:14:16;95533.94;;;35.61;46.11
25526;BME280;13424;48.424;11.258;2023-06-22T11:16:42;95532.78;;;35.51;45.51
25526;BME280;13424;48.424;11.258;2023-06-22T11:19:08;95526.22;;;34.95;48.50
25526;BME280;13424;48.424;11.258;2023-06-22T11:21:34;95530.00;;;35.58;47.12
25526;BME280;13424;48.424;11.258;2023-06-22T11:24:00;95518.31;;;35.99;47.25
25526;BME280;13424;48.424;11.258;2023-06-22T11:26:26;95527.66;;;35.49;45.56
25526;BME280;13424;48.424;11.258;2023-06-22T11:28:54;95515.25;;;35.75;45.91
25526;BME280;13424;48.424;11.258;2023-06-22T11:31:20;95519.47;;;34.39;48.70
25526;BME280;13424;48.424;11.258;2023-06-22T11:33:46;95514.97;;;35.38;45.63
25526;BME280;13424;48.424;11.258;2023-06-22T11:36:14;95513.41;;;35.47;45.78
25526;BME280;13424;48.424;11.258;2023-06-22T11:38:40;95502.94;;;35.80;44.60
25526;BME280;13424;48.424;11.258;2023-06-22T11:41:09;95496.94;;;34.26;47.57
25526;BME280;13424;48.424;11.258;2023-06-22T11:43:36;95493.38;;;35.85;45.98
25526;BME280;13424;48.424;11.258;2023-06-22T11:46:05;95498.63;;;36.34;43.92
25526;BME280;13424;48.424;11.258;2023-06-22T11:48:31;95496.88;;;36.58;44.13
25526;BME280;13424;48.424;11.258;2023-06-22T11:50:57;95503.13;;;36.14;43.89
25526;BME280;13424;48.424;11.258;2023-06-22T11:53:25;95501.88;;;36.22;43.69
25526;BME280;13424;48.424;11.258;2023-06-22T11:55:51;95504.78;;;35.06;47.20
25526;BME280;13424;48.424;11.258;2023-06-22T11:58:18;95505.94;;;35.19;45.96
25526;BME280;13424;48.424;11.258;2023-06-22T12:00:44;95490.97;;;35.97;46.78
25526;BME280;13424;48.424;11.258;2023-06-22T12:03:10;95491.81;;;35.91;45.29
25526;BME280;13424;48.424;11.258;2023-06-22T12:05:37;95486.75;;;36.79;44.31
25526;BME280;13424;48.424;11.258;2023-06-22T12:08:03;95491.09;;;36.80;43.31
25526;BME280;13424;48.424;11.258;2023-06-22T12:10:29;95491.66;;;36.08;43.06
25526;BME280;13424;48.424;11.258;2023-06-22T12:12:54;95488.84;;;36.68;42.88
25526;BME280;13424;48.424;11.258;2023-06-22T12:15:20;95491.09;;;36.80;42.03
25526;BME280;13424;48.424;11.258;2023-06-22T12:17:46;95482.38;;;36.78;43.20
25526;BME280;13424;48.424;11.258;2023-06-22T12:20:13;95489.09;;;36.39;45.21
25526;BME280;13424;48.424;11.258;2023-06-22T12:22:40;95479.44;;;36.54;43.04
25526;BME280;13424;48.424;11.258;2023-06-22T12:25:10;95466.19;;;36.24;44.06
25526;BME280;13424;48.424;11.258;2023-06-22T12:31:01;95468.59;;;36.22;46.20
25526;BME280;13424;48.424;11.258;2023-06-22T12:33:27;95467.38;;;36.72;43.34
25526;BME280;13424;48.424;11.258;2023-06-22T12:35:53;95462.94;;;37.50;41.73
25526;BME280;13424;48.424;11.258;2023-06-22T12:38:19;95465.19;;;37.28;42.02
25526;BME280;13424;48.424;11.258;2023-06-22T12:40:45;95471.28;;;37.50;42.55
25526;BME280;13424;48.424;11.258;2023-06-22T12:43:12;95465.69;;;37.19;43.91
25526;BME280;13424;48.424;11.258;2023-06-22T12:45:38;95464.34;;;37.34;44.62
25526;BME280;13424;48.424;11.258;2023-06-22T12:51:32;95466.50;;;38.08;42.73
25526;BME280;13424;48.424;11.258;2023-06-22T12:53:59;95456.97;;;38.09;41.82
25526;BME280;13424;48.424;11.258;2023-06-22T12:56:25;95448.50;;;36.94;45.13
25526;BME280;13424;48.424;11.258;2023-06-22T12:58:51;95449.56;;;37.98;42.81
25526;BME280;13424;48.424;11.258;2023-06-22T13:01:16;95452.19;;;37.52;42.60
25526;BME280;13424;48.424;11.258;2023-06-22T13:03:56;95438.97;;;37.59;41.48
25526;BME280;13424;48.424;11.258;2023-06-22T13:06:22;95442.94;;;38.39;40.22
25526;BME280;13424;48.424;11.258;2023-06-22T13:08:47;95443.63;;;37.96;41.81
25526;BME280;13424;48.424;11.258;2023-06-22T13:11:13;95443.56;;;38.50;40.71
25526;BME280;13424;48.424;11.258;2023-06-22T13:13:40;95438.50;;;38.69;40.57
25526;BME280;13424;48.424;11.258;2023-06-22T13:16:09;95438.31;;;38.56;38.99
25526;BME280;13424;48.424;11.258;2023-06-22T13:18:34;95429.41;;;37.91;41.07
25526;BME280;13424;48.424;11.258;2023-06-22T13:21:02;95428.06;;;37.72;41.30
25526;BME280;13424;48.424;11.258;2023-06-22T13:23:29;95426.88;;;37.42;41.73
25526;BME280;13424;48.424;11.258;2023-06-22T13:25:55;95425.38;;;37.04;42.79
25526;BME280;13424;48.424;11.258;2023-06-22T13:28:21;95440.81;;;38.00;42.70
25526;BME280;13424;48.424;11.258;2023-06-22T13:30:47;95449.06;;;38.54;41.17
25526;BME280;13424;48.424;11.258;2023-06-22T13:33:16;95437.88;;;38.58;42.62